Time;durP1;ratioP1;P1;durP2;ratioP2;P2;SDS_P1;SDS_P2;PMS_P1;PMS_P2;Temp;Humidity;BMP_temperature;BMP_pressure;BME280_temperature;BME280_humidity;BME280_pressure;Samples;Min_cycle;Max_cycle;Signal;HPM_P1;HPM_P2
2022/10/26 00:03:53;;;;;;;4.88;2.97;;;16.30;99.90;;;;;;10045487;28;20053;-63
2022/10/26 00:08:44;;;;;;;5.30;2.60;;;16.30;99.90;;;;;;10045177;28;20032;-62
2022/10/26 00:13:36;;;;;;;6.47;2.60;;;16.20;99.90;;;;;;10047468;28;20454;-62
2022/10/26 00:18:27;;;;;;;3.90;2.42;;;16.20;99.90;;;;;;10047992;28;20067;-61
2022/10/26 00:23:17;;;;;;;4.20;2.28;;;16.20;99.90;;;;;;10050406;28;20439;-62
2022/10/26 00:28:08;;;;;;;6.80;2.80;;;16.10;99.90;;;;;;10049310;28;20108;-62
2022/10/26 00:32:58;;;;;;;4.80;2.38;;;16.10;99.90;;;;;;10048010;28;20032;-62
2022/10/26 00:37:54;;;;;;;7.47;1.77;;;16.20;99.90;;;;;;10050123;28;20021;-61
2022/10/26 00:42:44;;;;;;;5.05;2.90;;;16.10;99.90;;;;;;10047555;28;20041;-63
2022/10/26 00:47:44;;;;;;;2.78;1.80;;;16.10;99.90;;;;;;10045569;28;20408;-62
2022/10/26 00:52:36;;;;;;;2.17;1.67;;;16.10;99.90;;;;;;10044279;28;20492;-62
2022/10/26 00:57:27;;;;;;;5.50;1.85;;;16.10;99.90;;;;;;10044378;28;20017;-63
2022/10/26 01:02:18;;;;;;;4.03;2.13;;;16.00;99.90;;;;;;10044260;28;20120;-65
2022/10/26 01:07:09;;;;;;;4.10;2.05;;;16.10;99.90;;;;;;10041724;28;20124;-67
2022/10/26 01:12:00;;;;;;;4.60;2.08;;;16.10;99.90;;;;;;10043260;28;20450;-62
2022/10/26 01:17:12;;;;;;;3.63;2.42;;;16.10;99.90;;;;;;10044846;28;20104;-61
2022/10/26 01:22:13;;;;;;;4.18;1.83;;;15.90;99.90;;;;;;10043492;28;20591;-62
2022/10/26 01:27:16;;;;;;;2.75;1.65;;;15.80;99.90;;;;;;10047666;28;20029;-62
2022/10/26 01:32:14;;;;;;;4.93;1.83;;;15.70;99.90;;;;;;10050747;28;20124;-62
2022/10/26 01:37:18;;;;;;;5.63;2.30;;;15.70;99.90;;;;;;10050786;28;20040;-62
2022/10/26 01:42:11;;;;;;;3.85;2.42;;;15.60;99.90;;;;;;10048666;28;20064;-63
2022/10/26 01:47:03;;;;;;;3.58;1.95;;;15.60;99.90;;;;;;10050534;28;20040;-63
2022/10/26 01:51:54;;;;;;;2.50;1.65;;;15.70;99.90;;;;;;10052118;28;20120;-62
2022/10/26 01:56:50;;;;;;;2.42;1.55;;;15.70;99.90;;;;;;10050638;28;20490;-63
2022/10/26 02:01:47;;;;;;;2.40;1.75;;;15.60;99.90;;;;;;10051986;28;20061;-62
2022/10/26 02:07:04;;;;;;;3.25;1.95;;;15.50;99.90;;;;;;10051506;28;20139;-63
2022/10/26 02:11:55;;;;;;;6.38;1.77;;;15.40;99.90;;;;;;10052625;28;20048;-62
2022/10/26 02:16:55;;;;;;;5.47;1.98;;;15.50;99.90;;;;;;10050931;28;20410;-62
2022/10/26 02:21:51;;;;;;;4.43;2.50;;;15.50;99.90;;;;;;10049091;28;20060;-62
2022/10/26 02:26:47;;;;;;;3.13;1.75;;;15.50;99.90;;;;;;10048088;28;20037;-65
2022/10/26 02:31:39;;;;;;;7.30;3.00;;;15.50;99.90;;;;;;10049343;28;20048;-62
2022/10/26 02:36:35;;;;;;;3.67;2.15;;;15.60;99.90;;;;;;10048473;28;20021;-63
2022/10/26 02:41:28;;;;;;;3.13;2.33;;;15.70;99.90;;;;;;10048249;28;20095;-62
2022/10/26 02:46:21;;;;;;;2.65;1.70;;;15.70;99.90;;;;;;10047832;28;20040;-62
2022/10/26 02:51:37;;;;;;;5.07;1.88;;;15.60;99.90;;;;;;10050053;28;20025;-62
2022/10/26 02:56:34;;;;;;;;;;;15.70;99.90;;;;;;10048561;28;20377;-64
2022/10/26 03:01:27;;;;;;;4.22;2.30;;;15.60;99.90;;;;;;10046932;28;20016;-62
2022/10/26 03:06:22;;;;;;;2.78;1.98;;;15.60;99.90;;;;;;10043756;28;20335;-62
2022/10/26 03:11:12;;;;;;;6.90;2.13;;;15.70;99.90;;;;;;10045570;28;20033;-62
2022/10/26 03:16:04;;;;;;;3.47;1.80;;;15.70;99.90;;;;;;10048061;28;20041;-61
2022/10/26 03:20:55;;;;;;;5.55;2.15;;;15.70;99.90;;;;;;10045779;28;20783;-62
2022/10/26 03:25:45;;;;;;;5.35;2.40;;;15.70;99.90;;;;;;10047494;28;20408;-62
2022/10/26 03:30:36;;;;;;;2.60;1.90;;;15.70;99.90;;;;;;10045286;28;20385;-62
2022/10/26 03:35:27;;;;;;;5.38;2.35;;;15.70;99.90;;;;;;10046508;28;20017;-62
2022/10/26 03:40:17;;;;;;;3.80;1.77;;;15.70;99.90;;;;;;10046844;28;20045;-63
2022/10/26 03:45:08;;;;;;;4.38;2.47;;;15.60;99.90;;;;;;10050420;28;20083;-61
2022/10/26 03:49:59;;;;;;;4.68;2.03;;;15.40;99.90;;;;;;10052051;28;20532;-66
2022/10/26 03:54:50;;;;;;;4.95;1.48;;;15.40;99.90;;;;;;10050819;28;20116;-63
2022/10/26 03:59:41;;;;;;;2.50;1.33;;;15.40;99.90;;;;;;10049737;28;20458;-61
2022/10/26 04:04:31;;;;;;;5.07;1.83;;;15.30;99.90;;;;;;10048099;28;20057;-64
2022/10/26 04:09:22;;;;;;;2.53;1.48;;;15.30;99.90;;;;;;10050149;28;20029;-62
2022/10/26 04:14:13;;;;;;;4.60;1.45;;;15.30;99.90;;;;;;10050935;28;20396;-66
2022/10/26 04:19:04;;;;;;;5.13;1.40;;;15.20;99.90;;;;;;10051408;28;20115;-63
2022/10/26 04:23:54;;;;;;;3.70;1.48;;;15.20;99.90;;;;;;10050998;28;20064;-64
2022/10/26 04:28:45;;;;;;;2.97;1.33;;;15.20;99.90;;;;;;10050622;28;20112;-66
2022/10/26 04:33:36;;;;;;;6.60;1.73;;;15.30;99.90;;;;;;10050100;28;20032;-65
2022/10/26 04:38:26;;;;;;;2.83;1.40;;;15.30;99.90;;;;;;10051115;28;20025;-67
2022/10/26 04:43:17;;;;;;;3.53;1.60;;;15.30;99.90;;;;;;10049402;28;20068;-65
2022/10/26 04:48:12;;;;;;;2.03;1.38;;;15.30;99.90;;;;;;10049842;28;20029;-64
2022/10/26 04:53:07;;;;;;;2.58;1.30;;;15.40;99.90;;;;;;10052727;28;20486;-66
2022/10/26 04:57:57;;;;;;;3.40;1.37;;;15.40;99.90;;;;;;10048101;28;20037;-64
2022/10/26 05:02:48;;;;;;;3.75;2.05;;;15.40;99.90;;;;;;10054030;28;20049;-63
2022/10/26 05:07:39;;;;;;;4.10;2.42;;;15.40;99.90;;;;;;10053665;28;20458;-63
2022/10/26 05:12:29;;;;;;;3.15;1.50;;;15.40;99.90;;;;;;10055356;28;20052;-63
2022/10/26 05:17:20;;;;;;;2.55;1.65;;;15.40;99.90;;;;;;10052348;28;20024;-65
2022/10/26 05:22:11;;;;;;;3.45;1.60;;;15.40;99.90;;;;;;10051752;28;20064;-62
2022/10/26 05:27:01;;;;;;;2.25;1.60;;;15.40;99.90;;;;;;10051987;28;20032;-65
2022/10/26 05:31:52;;;;;;;4.65;2.08;;;15.50;99.90;;;;;;10055905;28;20461;-61
2022/10/26 05:36:42;;;;;;;2.47;1.58;;;15.50;99.90;;;;;;10050140;28;20087;-63
2022/10/26 05:41:33;;;;;;;5.70;1.90;;;15.50;99.90;;;;;;10050479;28;20034;-62
2022/10/26 05:46:24;;;;;;;2.92;1.73;;;15.50;99.90;;;;;;10055224;28;20108;-63
2022/10/26 05:51:15;;;;;;;3.88;2.40;;;15.60;99.90;;;;;;10055433;28;20203;-63
2022/10/26 05:56:19;;;;;;;11.50;3.08;;;15.60;99.90;;;;;;10056896;28;20457;-63
2022/10/26 06:01:27;;;;;;;2.47;1.73;;;15.70;99.90;;;;;;10054967;28;20033;-63
2022/10/26 06:06:18;;;;;;;2.47;1.52;;;15.70;99.90;;;;;;10053731;28;20045;-61
2022/10/26 06:11:09;;;;;;;2.30;1.70;;;15.70;99.90;;;;;;10053489;28;20028;-64
2022/10/26 06:16:03;;;;;;;4.43;2.28;;;15.70;99.90;;;;;;10055857;28;20017;-62
2022/10/26 06:21:17;;;;;;;4.70;1.80;;;15.70;99.90;;;;;;10054547;28;20045;-64
2022/10/26 06:26:52;;;;;;;4.13;2.10;;;15.70;99.90;;;;;;10053315;28;20021;-63
2022/10/26 06:31:45;;;;;;;4.07;2.25;;;15.70;99.90;;;;;;10051337;28;20198;-62
2022/10/26 06:36:39;;;;;;;4.70;1.77;;;15.70;99.90;;;;;;10053082;28;20384;-69
2022/10/26 06:41:31;;;;;;;4.25;1.90;;;15.70;99.90;;;;;;10050875;28;20416;-74
2022/10/26 06:46:31;;;;;;;4.30;2.05;;;15.70;99.90;;;;;;10048098;28;20016;-67
2022/10/26 06:51:23;;;;;;;5.43;2.30;;;15.80;99.90;;;;;;10040366;28;20025;-68
2022/10/26 06:56:15;;;;;;;5.35;1.70;;;15.90;99.90;;;;;;10047306;28;20840;-69
2022/10/26 07:01:09;;;;;;;4.28;2.28;;;16.00;99.90;;;;;;10046132;28;20400;-63
2022/10/26 07:06:04;;;;;;;3.08;1.88;;;16.10;99.90;;;;;;10043195;28;20037;-64
2022/10/26 07:10:54;;;;;;;4.45;1.88;;;16.20;99.90;;;;;;10048834;28;20573;-65
2022/10/26 07:15:46;;;;;;;5.40;1.67;;;16.30;99.90;;;;;;10050525;28;20029;-65
2022/10/26 07:20:39;;;;;;;3.97;1.92;;;16.30;99.90;;;;;;10048314;28;20392;-65
2022/10/26 07:25:29;;;;;;;4.03;2.42;;;16.40;99.90;;;;;;10048695;28;20264;-63
2022/10/26 07:30:20;;;;;;;5.13;1.92;;;16.40;99.90;;;;;;10050153;28;20018;-63
2022/10/26 07:35:11;;;;;;;3.92;2.05;;;16.60;99.90;;;;;;10045401;28;20260;-64
2022/10/26 07:40:02;;;;;;;3.05;2.13;;;16.60;99.90;;;;;;10048848;28;20545;-66
2022/10/26 07:44:53;;;;;;;4.13;2.05;;;16.60;99.90;;;;;;10050221;28;20040;-67
2022/10/26 07:49:44;;;;;;;3.75;1.50;;;16.60;99.90;;;;;;10049147;28;20022;-66
2022/10/26 07:54:34;;;;;;;5.30;2.17;;;16.70;99.90;;;;;;10049700;28;20029;-63
2022/10/26 07:59:25;;;;;;;5.30;1.50;;;16.80;99.90;;;;;;10050503;28;20823;-66
2022/10/26 08:04:16;;;;;;;4.63;2.30;;;16.90;99.90;;;;;;10045585;28;20487;-63
2022/10/26 08:09:06;;;;;;;3.03;2.03;;;17.00;99.90;;;;;;10050092;28;20010;-62
2022/10/26 08:13:57;;;;;;;4.50;1.85;;;16.90;99.90;;;;;;10046082;28;20022;-63
2022/10/26 08:18:51;;;;;;;3.97;1.80;;;16.80;99.90;;;;;;10046428;28;20391;-65
2022/10/26 08:23:42;;;;;;;6.95;3.13;;;16.80;99.90;;;;;;10043763;28;20075;-65
2022/10/26 08:28:36;;;;;;;5.00;2.63;;;16.90;99.90;;;;;;10044987;28;20029;-63
2022/10/26 08:33:27;;;;;;;4.75;2.67;;;17.00;99.90;;;;;;10044179;28;20056;-69
2022/10/26 08:38:18;;;;;;;7.15;2.63;;;17.10;99.90;;;;;;10051562;28;20040;-63
2022/10/26 08:43:41;;;;;;;6.72;2.42;;;17.10;99.90;;;;;;10051358;28;20090;-63
2022/10/26 08:48:36;;;;;;;4.57;2.88;;;17.20;99.90;;;;;;10050850;28;20116;-63
2022/10/26 08:53:27;;;;;;;;;;;17.20;99.90;;;;;;10054341;28;20040;-66
2022/10/26 08:58:22;;;;;;;4.47;2.53;;;17.10;99.90;;;;;;10056162;28;20304;-64
2022/10/26 09:03:17;;;;;;;6.03;2.00;;;17.10;99.90;;;;;;10054681;28;20033;-64
2022/10/26 09:08:20;;;;;;;;;;;17.20;99.90;;;;;;10056660;28;20064;-63
2022/10/26 09:13:19;;;;;;;6.32;2.25;;;17.10;99.90;;;;;;10059758;28;19913;-62
2022/10/26 09:18:46;;;;;;;2.40;1.52;;;17.30;99.90;;;;;;10056206;28;20456;-63
2022/10/26 09:24:08;;;;;;;2.00;1.63;;;17.40;99.90;;;;;;10053859;28;20551;-64
2022/10/26 09:29:06;;;;;;;3.60;1.92;;;17.50;99.90;;;;;;10055477;28;20047;-63
2022/10/26 09:34:01;;;;;;;3.50;1.85;;;17.60;99.90;;;;;;10054389;28;20547;-62
2022/10/26 09:39:40;;;;;;;6.45;1.90;;;17.80;99.90;;;;;;10054676;28;20030;-65
2022/10/26 09:44:37;;;;;;;5.72;2.30;;;18.00;99.90;;;;;;10048565;28;20450;-64
2022/10/26 09:49:47;;;;;;;5.18;2.50;;;18.10;99.90;;;;;;10049667;28;20581;-62
2022/10/26 09:54:38;;;;;;;7.82;2.35;;;18.50;99.90;;;;;;10047301;28;20018;-63
2022/10/26 09:59:32;;;;;;;10.02;1.90;;;18.70;99.90;;;;;;10049322;28;20257;-62
2022/10/26 10:04:23;;;;;;;4.13;2.00;;;18.80;99.90;;;;;;10049531;28;20397;-62
2022/10/26 10:09:15;;;;;;;4.97;2.60;;;18.70;99.90;;;;;;10051051;28;20280;-72
2022/10/26 10:14:08;;;;;;;6.85;2.22;;;18.50;99.90;;;;;;10050539;28;20462;-68
2022/10/26 10:19:00;;;;;;;6.30;2.13;;;18.50;99.90;;;;;;10047382;28;20163;-64
2022/10/26 10:23:52;;;;;;;4.55;1.90;;;18.50;99.90;;;;;;10047858;28;20034;-61
2022/10/26 10:28:55;;;;;;;3.63;2.00;;;18.50;99.90;;;;;;10048151;28;20025;-63
2022/10/26 10:33:48;;;;;;;6.18;2.17;;;18.60;99.90;;;;;;10046614;28;20131;-64
2022/10/26 10:38:41;;;;;;;5.03;2.38;;;18.80;99.90;;;;;;10052582;28;20075;-65
2022/10/26 10:43:32;;;;;;;4.60;1.75;;;19.00;99.90;;;;;;10051117;28;20591;-62
2022/10/26 10:48:26;;;;;;;2.70;2.08;;;19.10;99.90;;;;;;10053669;28;20209;-61
2022/10/26 10:53:23;;;;;;;5.03;2.60;;;19.20;99.90;;;;;;10045042;28;20393;-63
2022/10/26 10:58:29;;;;;;;5.22;2.35;;;19.40;99.90;;;;;;10030739;28;20089;-62
2022/10/26 11:03:39;;;;;;;4.40;2.03;;;19.60;99.90;;;;;;10033551;28;20415;-64
2022/10/26 11:08:39;;;;;;;7.72;1.80;;;19.70;99.90;;;;;;10033811;28;20030;-62
2022/10/26 11:13:52;;;;;;;3.80;1.80;;;19.70;99.90;;;;;;10027364;28;20049;-64
2022/10/26 11:18:52;;;;;;;9.50;2.88;;;19.70;99.90;;;;;;10034582;28;20029;-62
2022/10/26 11:24:09;;;;;;;6.97;2.25;;;19.60;99.90;;;;;;10040441;28;20404;-64
2022/10/26 11:29:25;;;;;;;3.60;2.00;;;19.70;99.90;;;;;;10041093;28;20045;-65
2022/10/26 11:34:20;;;;;;;;;;;19.80;99.90;;;;;;10047812;28;20033;-62
2022/10/26 11:39:19;;;;;;;4.77;1.80;;;19.90;99.90;;;;;;10031699;28;21423;-65
2022/10/26 11:44:30;;;;;;;4.95;2.25;;;19.90;99.90;;;;;;10023544;28;20867;-68
2022/10/26 11:49:51;;;;;;;6.20;2.03;;;20.20;99.90;;;;;;10028960;28;20049;-68
2022/10/26 11:54:50;;;;;;;5.43;1.73;;;20.30;99.90;;;;;;10026522;28;20415;-72
2022/10/26 11:59:51;;;;;;;3.03;2.20;;;20.50;99.90;;;;;;10027401;28;20365;-70
2022/10/26 12:04:46;;;;;;;4.57;1.83;;;20.60;99.90;;;;;;10030446;28;20658;-71
2022/10/26 12:09:40;;;;;;;6.50;1.83;;;20.80;99.90;;;;;;10022822;28;20136;-66
2022/10/26 12:15:20;;;;;;;4.15;1.60;;;20.90;99.90;;;;;;10037905;28;20049;-68
2022/10/26 12:20:23;;;;;;;6.53;2.72;;;21.20;99.90;;;;;;10014034;28;20154;-65
2022/10/26 12:25:18;;;;;;;5.30;2.03;;;21.40;99.90;;;;;;10027471;28;20028;-72
2022/10/26 12:30:18;;;;;;;3.53;1.67;;;21.80;99.90;;;;;;10028126;28;20036;-71
2022/10/26 12:35:35;;;;;;;3.70;1.48;;;22.10;99.90;;;;;;10032410;28;20026;-69
2022/10/26 12:40:41;;;;;;;8.23;2.30;;;22.40;99.90;;;;;;10030940;28;20124;-66
2022/10/26 12:45:32;;;;;;;4.78;1.90;;;22.70;99.90;;;;;;10029764;28;20457;-65
2022/10/26 12:50:23;;;;;;;5.22;1.77;;;23.00;99.90;;;;;;10032430;28;20021;-69
2022/10/26 12:55:27;;;;;;;4.78;2.55;;;23.20;99.90;;;;;;10032409;28;20025;-67
2022/10/26 13:00:25;;;;;;;4.47;1.60;;;23.60;99.90;;;;;;10034664;28;20025;-64
2022/10/26 13:05:47;;;;;;;5.45;1.70;;;23.90;99.90;;;;;;10033113;28;21207;-66
2022/10/26 13:10:58;;;;;;;6.68;2.38;;;24.30;99.90;;;;;;10030615;28;20053;-67
2022/10/26 13:15:55;;;;;;;4.40;1.80;;;24.50;99.90;;;;;;10033946;28;20108;-69
2022/10/26 13:21:13;;;;;;;4.53;2.33;;;24.70;99.90;;;;;;10035482;28;20025;-63
2022/10/26 13:26:11;;;;;;;4.22;2.25;;;24.90;99.90;;;;;;10040681;28;20018;-63
2022/10/26 13:31:21;;;;;;;4.55;2.13;;;24.80;99.90;;;;;;10040980;28;20167;-65
2022/10/26 13:36:46;;;;;;;7.05;2.40;;;24.50;99.90;;;;;;10038225;28;20965;-65
2022/10/26 13:41:40;;;;;;;3.85;1.63;;;24.40;99.90;;;;;;10038489;28;20399;-68
2022/10/26 13:46:38;;;;;;;4.05;1.80;;;24.30;99.90;;;;;;10041926;28;20095;-67
2022/10/26 13:51:47;;;;;;;8.05;2.30;;;24.30;99.90;;;;;;10039794;28;20029;-64
2022/10/26 13:57:09;;;;;;;3.63;1.45;;;24.30;99.90;;;;;;10037025;28;20026;-63
2022/10/26 14:02:21;;;;;;;6.47;1.63;;;24.40;99.90;;;;;;10038063;28;20029;-63
2022/10/26 14:07:19;;;;;;;5.30;1.70;;;24.40;99.90;;;;;;10034756;28;20057;-64
2022/10/26 14:12:10;;;;;;;5.78;1.73;;;24.30;99.90;;;;;;10055931;28;20188;-64
2022/10/26 14:17:02;;;;;;;2.00;1.52;;;24.20;99.90;;;;;;10046796;28;20033;-65
2022/10/26 14:21:54;;;;;;;4.40;1.98;;;24.20;99.90;;;;;;10031519;28;20088;-64
2022/10/26 14:26:45;;;;;;;2.78;1.67;;;24.00;99.90;;;;;;10035473;28;20499;-62
2022/10/26 14:31:37;;;;;;;5.20;1.70;;;24.00;99.90;;;;;;10029727;28;20726;-64
2022/10/26 14:36:37;;;;;;;5.18;1.88;;;23.90;99.90;;;;;;10032529;28;20058;-63
2022/10/26 14:41:29;;;;;;;7.93;2.95;;;23.60;99.90;;;;;;10029915;28;20080;-62
2022/10/26 14:46:19;;;;;;;4.97;1.52;;;23.40;99.90;;;;;;10028185;28;20392;-66
2022/10/26 14:51:16;;;;;;;6.38;2.63;;;23.40;99.90;;;;;;10020576;28;20041;-68
2022/10/26 14:56:35;;;;;;;3.65;1.42;;;23.30;99.90;;;;;;10036185;28;20022;-66
2022/10/26 15:01:28;;;;;;;6.20;1.50;;;23.20;99.90;;;;;;10046573;28;20506;-62
2022/10/26 15:06:28;;;;;;;6.85;2.30;;;23.10;99.90;;;;;;10049999;28;20053;-65
2022/10/26 15:11:18;;;;;;;5.85;1.67;;;22.90;99.90;;;;;;10047644;28;20029;-68
2022/10/26 15:16:16;;;;;;;1.85;1.48;;;22.90;99.90;;;;;;10047426;28;20026;-66
2022/10/26 15:21:33;;;;;;;3.20;1.38;;;22.70;99.90;;;;;;10047680;28;20435;-65
2022/10/26 15:26:25;;;;;;;4.53;1.98;;;22.70;99.90;;;;;;10047539;28;20033;-64
2022/10/26 15:31:15;;;;;;;11.07;2.38;;;22.60;99.90;;;;;;10048385;28;20853;-66
2022/10/26 15:36:15;;;;;;;3.50;1.80;;;22.60;99.90;;;;;;10050147;28;20025;-70
2022/10/26 15:41:34;;;;;;;5.68;2.13;;;22.50;99.90;;;;;;10048762;28;20044;-70
2022/10/26 15:46:29;;;;;;;3.20;1.77;;;22.30;99.90;;;;;;10044964;28;20227;-65
2022/10/26 15:51:20;;;;;;;2.78;2.08;;;22.20;99.90;;;;;;10046216;28;20430;-70
2022/10/26 15:56:16;;;;;;;3.63;1.55;;;22.10;99.90;;;;;;10047928;28;20167;-67
2022/10/26 16:01:14;;;;;;;10.25;3.30;;;22.00;99.90;;;;;;10046254;28;20029;-67
2022/10/26 16:06:16;;;;;;;6.88;3.55;;;21.70;99.90;;;;;;10043367;28;20041;-64
2022/10/26 16:11:06;;;;;;;5.55;2.95;;;21.40;99.90;;;;;;10045925;28;20021;-62
2022/10/26 16:15:57;;;;;;;5.05;2.08;;;21.30;99.90;;;;;;10047130;28;20519;-64
2022/10/26 16:20:48;;;;;;;3.40;2.15;;;21.30;99.90;;;;;;10045778;28;20041;-62
2022/10/26 16:25:44;;;;;;;4.70;3.20;;;21.20;99.90;;;;;;10038594;28;20148;-64
2022/10/26 16:30:35;;;;;;;7.13;3.15;;;20.90;99.90;;;;;;10044165;28;20319;-66
2022/10/26 16:35:26;;;;;;;7.93;3.30;;;20.70;99.90;;;;;;10042388;28;20080;-63
2022/10/26 16:40:16;;;;;;;9.13;4.45;;;20.50;99.90;;;;;;10044762;28;20096;-63
2022/10/26 16:45:07;;;;;;;11.45;4.45;;;20.30;99.90;;;;;;10043018;28;20488;-65
2022/10/26 16:49:58;;;;;;;17.02;8.60;;;20.10;99.90;;;;;;10045890;28;20021;-65
2022/10/26 16:54:49;;;;;;;15.68;7.57;;;20.00;99.90;;;;;;10043114;28;20071;-65
2022/10/26 16:59:40;;;;;;;13.40;6.60;;;19.90;99.90;;;;;;10052732;28;20113;-66
2022/10/26 17:04:30;;;;;;;12.02;5.88;;;19.80;99.90;;;;;;10044042;28;20057;-65
2022/10/26 17:09:21;;;;;;;16.00;6.53;;;19.70;99.90;;;;;;10063441;22;1149843;-64
2022/10/26 17:14:12;;;;;;;13.77;6.10;;;19.70;99.90;;;;;;10092991;28;20043;-62
2022/10/26 17:19:02;;;;;;;13.90;5.97;;;19.60;99.90;;;;;;10072395;28;20104;-61
2022/10/26 17:23:53;;;;;;;18.90;8.38;;;19.50;99.90;;;;;;10088768;28;20117;-62
2022/10/26 17:28:44;;;;;;;20.45;8.43;;;19.40;99.90;;;;;;10098300;28;20049;-62
2022/10/26 17:33:37;;;;;;;14.70;8.50;;;19.40;99.90;;;;;;10109521;28;20040;-61
2022/10/26 17:38:35;;;;;;;16.58;7.88;;;19.30;99.90;;;;;;10097284;28;20067;-63
2022/10/26 17:43:28;;;;;;;12.90;6.05;;;19.20;99.90;;;;;;10097656;28;20127;-65
2022/10/26 17:48:18;;;;;;;18.38;7.78;;;19.20;99.90;;;;;;10097649;28;20029;-64
2022/10/26 17:53:09;;;;;;;22.35;9.32;;;19.10;99.90;;;;;;10100284;28;20025;-63
2022/10/26 17:57:59;;;;;;;18.55;8.32;;;19.10;99.90;;;;;;10102835;28;20029;-64
2022/10/26 18:02:50;;;;;;;18.45;8.55;;;19.10;99.90;;;;;;10112819;28;20453;-63
2022/10/26 18:07:41;;;;;;;20.40;8.65;;;19.10;99.90;;;;;;10096425;28;20291;-64
2022/10/26 18:12:31;;;;;;;13.15;7.78;;;19.00;99.90;;;;;;10097157;28;20031;-65
2022/10/26 18:17:22;;;;;;;24.05;9.60;;;19.00;99.90;;;;;;10112377;28;20190;-64
2022/10/26 18:22:13;;;;;;;14.27;7.15;;;18.90;99.90;;;;;;10109099;28;20441;-64
2022/10/26 18:27:03;;;;;;;18.33;9.13;;;18.90;99.90;;;;;;10110883;28;20058;-64
2022/10/26 18:31:55;;;;;;;14.00;6.88;;;18.80;99.90;;;;;;10113214;28;20020;-65
2022/10/26 18:36:47;;;;;;;15.40;6.97;;;18.70;99.90;;;;;;10108976;28;20071;-66
2022/10/26 18:41:38;;;;;;;17.77;6.85;;;18.70;99.90;;;;;;10109005;28;20537;-66
2022/10/26 18:46:32;;;;;;;14.20;6.15;;;18.70;99.90;;;;;;10105086;28;20031;-67
2022/10/26 18:51:29;;;;;;;12.70;7.22;;;18.60;99.90;;;;;;10097121;28;20020;-65
2022/10/26 18:56:21;;;;;;;15.15;7.95;;;18.50;99.90;;;;;;10095990;28;20033;-65
2022/10/26 19:01:23;;;;;;;21.02;9.15;;;18.40;99.90;;;;;;10089935;28;20430;-65
2022/10/26 19:06:15;;;;;;;22.40;8.63;;;18.40;99.90;;;;;;10090906;28;20061;-63
2022/10/26 19:11:08;;;;;;;12.45;8.13;;;18.30;99.90;;;;;;10096505;28;20017;-64
2022/10/26 19:16:05;;;;;;;18.88;8.45;;;18.30;99.90;;;;;;10094009;28;20106;-63
2022/10/26 19:21:07;;;;;;;16.50;7.60;;;18.30;99.90;;;;;;10095997;28;20029;-64
2022/10/26 19:25:58;;;;;;;17.83;8.05;;;18.20;99.90;;;;;;10095098;28;20063;-62
2022/10/26 19:30:49;;;;;;;21.58;8.48;;;18.20;99.90;;;;;;10095831;28;20025;-65
2022/10/26 19:35:40;;;;;;;19.25;10.60;;;18.10;99.90;;;;;;10093264;28;20029;-72
2022/10/26 19:40:34;;;;;;;24.80;9.48;;;18.10;99.90;;;;;;10095370;28;20499;-63
2022/10/26 19:45:25;;;;;;;24.60;11.13;;;18.00;99.90;;;;;;10095054;28;20032;-67
2022/10/26 19:50:15;;;;;;;23.58;13.82;;;17.90;99.90;;;;;;10095964;28;20029;-63
2022/10/26 19:55:07;;;;;;;47.85;22.27;;;17.90;99.90;;;;;;10087621;28;20053;-63
2022/10/26 19:59:58;;;;;;;41.25;18.60;;;18.00;99.90;;;;;;10097774;28;20021;-66
2022/10/26 20:04:48;;;;;;;22.17;10.07;;;18.00;99.90;;;;;;10093192;28;20060;-61
2022/10/26 20:09:39;;;;;;;39.90;17.60;;;17.90;99.90;;;;;;10090026;28;20059;-63
2022/10/26 20:14:30;;;;;;;32.33;13.90;;;17.80;99.90;;;;;;10089138;28;20025;-63
2022/10/26 20:19:20;;;;;;;36.60;14.93;;;17.80;99.90;;;;;;10087551;28;21324;-66
2022/10/26 20:24:11;;;;;;;26.42;12.73;;;17.80;99.90;;;;;;10087242;28;20065;-64
2022/10/26 20:29:02;;;;;;;52.58;22.27;;;17.80;99.90;;;;;;10085502;28;20087;-68
2022/10/26 20:33:52;;;;;;;34.63;18.25;;;17.70;99.90;;;;;;10086087;28;20021;-65
2022/10/26 20:38:43;;;;;;;18.08;10.77;;;17.60;99.90;;;;;;10085047;28;20052;-64
2022/10/26 20:43:37;;;;;;;12.75;8.38;;;17.60;99.90;;;;;;10085705;28;20037;-65
2022/10/26 20:48:28;;;;;;;26.95;11.25;;;17.60;99.90;;;;;;10085391;28;20021;-65
2022/10/26 20:53:42;;;;;;;16.88;7.70;;;17.50;99.90;;;;;;10089698;28;20116;-65
2022/10/26 20:58:55;;;;;;;19.35;9.13;;;17.50;99.90;;;;;;10092284;28;20095;-66
2022/10/26 21:03:45;;;;;;;23.27;10.25;;;17.40;99.90;;;;;;10086800;28;20239;-65
2022/10/26 21:08:36;;;;;;;24.20;12.02;;;17.40;99.90;;;;;;10089786;28;20431;-65
2022/10/26 21:13:27;;;;;;;26.45;10.93;;;17.40;99.90;;;;;;10090747;28;20028;-65
2022/10/26 21:18:17;;;;;;;16.02;8.45;;;17.40;99.90;;;;;;10089960;28;20101;-65
2022/10/26 21:23:08;;;;;;;20.40;8.75;;;17.30;99.90;;;;;;10088276;28;20105;-65
2022/10/26 21:27:59;;;;;;;12.95;7.20;;;17.30;99.90;;;;;;10087299;28;20450;-64
2022/10/26 21:32:51;;;;;;;15.02;9.15;;;17.20;99.90;;;;;;10088907;28;20067;-65
2022/10/26 21:37:42;;;;;;;17.63;8.98;;;17.20;99.90;;;;;;10085212;28;20133;-64
2022/10/26 21:42:32;;;;;;;10.13;6.50;;;17.20;99.90;;;;;;10085553;28;20032;-64
2022/10/26 21:47:23;;;;;;;15.27;7.28;;;17.20;99.90;;;;;;10091108;28;20036;-64
2022/10/26 21:52:14;;;;;;;20.50;7.07;;;17.10;99.90;;;;;;10091102;28;20036;-64
2022/10/26 21:57:04;;;;;;;14.95;7.05;;;17.10;99.90;;;;;;10092122;28;20260;-64
2022/10/26 22:01:55;;;;;;;11.48;6.72;;;17.00;99.90;;;;;;10092076;28;20779;-64
2022/10/26 22:06:45;;;;;;;12.98;7.35;;;16.90;99.90;;;;;;10091967;28;20057;-63
2022/10/26 22:11:36;;;;;;;14.93;6.65;;;16.90;99.90;;;;;;10090276;28;20025;-64
2022/10/26 22:16:29;;;;;;;13.65;6.57;;;16.90;99.90;;;;;;10090405;28;20024;-63
2022/10/26 22:21:22;;;;;;;16.13;5.90;;;16.90;99.90;;;;;;10089842;28;20079;-64
2022/10/26 22:26:19;;;;;;;12.68;5.40;;;16.80;99.90;;;;;;10091190;28;20079;-64
2022/10/26 22:31:13;;;;;;;10.52;6.30;;;16.80;99.90;;;;;;10089273;28;20021;-64
2022/10/26 22:36:09;;;;;;;15.05;6.20;;;16.70;99.90;;;;;;10096248;28;20364;-65
2022/10/26 22:41:01;;;;;;;10.13;5.30;;;16.70;99.90;;;;;;10093232;28;20052;-65
2022/10/26 22:46:25;;;;;;;11.18;6.05;;;16.70;99.90;;;;;;10095204;28;20116;-65
2022/10/26 22:51:18;;;;;;;15.05;7.05;;;16.60;99.90;;;;;;10080132;28;20854;-64
2022/10/26 22:56:11;;;;;;;13.95;5.95;;;16.60;99.90;;;;;;10093111;28;20522;-64
2022/10/26 23:01:13;;;;;;;12.18;6.13;;;16.50;99.90;;;;;;10093502;28;20080;-64
2022/10/26 23:06:10;;;;;;;11.20;5.20;;;16.50;99.90;;;;;;10092023;28;20106;-66
2022/10/26 23:11:03;;;;;;;12.98;5.85;;;16.40;99.90;;;;;;10092710;28;20028;-66
2022/10/26 23:15:54;;;;;;;11.35;6.93;;;16.30;99.90;;;;;;10090051;28;20047;-64
2022/10/26 23:20:49;;;;;;;12.85;6.57;;;16.30;99.90;;;;;;10089504;28;20112;-64
2022/10/26 23:25:40;;;;;;;9.60;5.33;;;16.30;99.90;;;;;;10088044;28;20040;-65
2022/10/26 23:30:31;;;;;;;11.65;5.05;;;16.20;99.90;;;;;;10086901;28;20633;-65
2022/10/26 23:35:22;;;;;;;11.82;5.05;;;16.20;99.90;;;;;;10088147;28;20029;-65
2022/10/26 23:40:12;;;;;;;9.13;5.07;;;16.20;99.90;;;;;;10086390;28;20025;-64
2022/10/26 23:45:03;;;;;;;10.52;4.97;;;16.20;99.90;;;;;;10086670;28;22047;-65
2022/10/26 23:49:54;;;;;;;14.82;5.07;;;16.00;99.90;;;;;;10087176;28;20403;-64
2022/10/26 23:54:44;;;;;;;12.75;4.95;;;16.00;99.90;;;;;;10085313;28;20461;-64
2022/10/26 23:59:35;;;;;;;12.45;5.18;;;16.00;99.90;;;;;;10085735;28;20029;-65
